Time;durP1;ratioP1;P1;durP2;ratioP2;P2;SDS_P1;SDS_P2;PMS_P1;PMS_P2;Temp;Humidity;BMP_temperature;BMP_pressure;BME280_temperature;BME280_humidity;BME280_pressure;Samples;Min_cycle;Max_cycle;Signal;HPM_P1;HPM_P2
2022/06/19 00:01:52;;;;;;;2.42;1.13;;;12.60;99.90;;;;;;4889766;29;20278;-68
2022/06/19 00:04:19;;;;;;;3.47;1.58;;;12.50;99.90;;;;;;4882867;29;20516;-67
2022/06/19 00:06:46;;;;;;;2.05;0.95;;;12.30;99.90;;;;;;4873177;29;20233;-68
2022/06/19 00:09:12;;;;;;;3.97;1.35;;;12.20;99.90;;;;;;4889645;29;20053;-68
2022/06/19 00:11:39;;;;;;;3.38;1.42;;;12.20;99.90;;;;;;4889637;29;20593;-68
2022/06/19 00:14:06;;;;;;;4.28;1.13;;;12.00;99.90;;;;;;4884459;29;20123;-68
2022/06/19 00:16:33;;;;;;;4.05;1.48;;;11.90;99.90;;;;;;4884557;29;20593;-68
2022/06/19 00:19:00;;;;;;;4.03;1.63;;;11.70;99.90;;;;;;4886810;29;20241;-68
2022/06/19 00:21:27;;;;;;;3.97;1.63;;;11.70;99.90;;;;;;4872295;29;20463;-69
2022/06/19 00:23:53;;;;;;;4.05;1.40;;;11.60;99.90;;;;;;4888480;29;20068;-68
2022/06/19 00:26:20;;;;;;;2.55;1.02;;;11.60;99.90;;;;;;4887961;29;20058;-68
2022/06/19 00:28:47;;;;;;;2.78;1.35;;;11.60;99.90;;;;;;4888970;29;20057;-68
2022/06/19 00:31:14;;;;;;;1.92;1.08;;;11.60;99.90;;;;;;4891482;29;20100;-68
2022/06/19 00:33:42;;;;;;;1.65;0.80;;;11.70;99.90;;;;;;4887871;29;20088;-68
2022/06/19 00:36:08;;;;;;;2.67;1.00;;;11.70;99.90;;;;;;4891036;29;20079;-68
2022/06/19 00:38:35;;;;;;;2.75;1.00;;;11.60;99.90;;;;;;4908127;29;20091;-68
2022/06/19 00:41:02;;;;;;;2.20;1.05;;;11.60;99.90;;;;;;4906491;29;20540;-68
2022/06/19 00:43:29;;;;;;;2.25;0.73;;;11.60;99.90;;;;;;4907164;29;20052;-69
2022/06/19 00:46:04;;;;;;;2.65;0.90;;;11.60;99.90;;;;;;4890102;29;20577;-68
2022/06/19 00:48:33;;;;;;;1.95;0.73;;;11.60;99.90;;;;;;4889967;29;20048;-68
2022/06/19 00:51:02;;;;;;;1.40;0.80;;;11.50;99.90;;;;;;4891276;29;20316;-68
2022/06/19 00:53:32;;;;;;;2.70;1.10;;;11.40;99.90;;;;;;4889937;29;20134;-68
2022/06/19 00:55:58;;;;;;;2.47;1.00;;;11.30;99.90;;;;;;4907782;29;20047;-68
2022/06/19 00:58:32;;;;;;;1.77;0.90;;;11.30;99.90;;;;;;4890215;29;20131;-69
2022/06/19 01:01:02;;;;;;;2.17;1.10;;;11.30;99.90;;;;;;4889212;29;20131;-68
2022/06/19 01:03:44;;;;;;;2.65;0.85;;;11.20;99.90;;;;;;4849106;29;20088;-68
2022/06/19 01:06:11;;;;;;;1.67;1.00;;;11.20;99.90;;;;;;4907305;29;20099;-68
2022/06/19 01:08:37;;;;;;;1.05;0.70;;;11.30;99.90;;;;;;4875238;29;20135;-68
2022/06/19 01:11:04;;;;;;;3.30;1.50;;;11.30;99.90;;;;;;4907674;29;20131;-68
2022/06/19 01:13:31;;;;;;;4.80;1.23;;;11.30;99.90;;;;;;4873842;29;20155;-68
2022/06/19 01:15:58;;;;;;;2.17;1.10;;;11.30;99.90;;;;;;4873414;29;20469;-68
2022/06/19 01:18:25;;;;;;;3.88;1.48;;;11.30;99.90;;;;;;4889228;29;20087;-68
2022/06/19 01:20:55;;;;;;;3.10;1.48;;;11.30;99.90;;;;;;4907835;29;20436;-68
2022/06/19 01:23:27;;;;;;;2.90;1.27;;;11.30;99.90;;;;;;4889010;29;20105;-68
2022/06/19 01:25:54;;;;;;;2.53;1.20;;;11.30;99.90;;;;;;4889970;29;20124;-68
2022/06/19 01:31:11;;;;;;;2.40;1.13;;;11.30;99.90;;;;;;4878938;29;20139;-68
2022/06/19 01:33:47;;;;;;;1.58;0.95;;;11.20;99.90;;;;;;4872369;29;20087;-68
2022/06/19 01:36:15;;;;;;;3.28;1.58;;;11.30;99.90;;;;;;4876865;29;20558;-68
2022/06/19 01:38:46;;;;;;;2.60;1.27;;;11.30;99.90;;;;;;4876344;29;20083;-68
2022/06/19 01:41:14;;;;;;;1.58;0.98;;;11.20;99.90;;;;;;4877116;29;20072;-68
2022/06/19 01:43:41;;;;;;;2.25;1.20;;;11.10;99.90;;;;;;4875623;29;20105;-69
2022/06/19 01:46:08;;;;;;;1.95;1.10;;;11.20;99.90;;;;;;4875388;29;20047;-68
2022/06/19 01:48:35;;;;;;;2.67;0.88;;;11.30;99.90;;;;;;4875091;29;20048;-68
2022/06/19 01:51:02;;;;;;;1.80;1.05;;;11.40;99.90;;;;;;4891645;29;20055;-68
2022/06/19 01:53:36;;;;;;;2.75;0.82;;;11.40;99.90;;;;;;4890608;29;20191;-68
2022/06/19 01:56:06;;;;;;;1.80;0.93;;;11.50;99.90;;;;;;4877000;29;20143;-68
2022/06/19 01:58:33;;;;;;;3.60;1.20;;;11.50;99.90;;;;;;4891697;29;20158;-68
2022/06/19 02:01:03;;;;;;;1.15;0.55;;;11.50;99.90;;;;;;4875319;29;20087;-68
2022/06/19 02:03:45;;;;;;;2.53;1.02;;;11.50;99.90;;;;;;4905683;29;20143;-68
2022/06/19 02:06:17;;;;;;;1.45;0.70;;;11.40;99.90;;;;;;4877026;29;20063;-68
2022/06/19 02:08:43;;;;;;;3.88;1.10;;;11.40;99.90;;;;;;4875475;29;20178;-68
2022/06/19 02:11:11;;;;;;;1.48;0.80;;;11.40;99.90;;;;;;4876023;29;20048;-68
2022/06/19 02:13:38;;;;;;;2.08;1.00;;;11.40;99.90;;;;;;4890478;29;20088;-68
2022/06/19 02:16:08;;;;;;;1.63;0.70;;;11.40;99.90;;;;;;4860249;29;20135;-68
2022/06/19 02:18:37;;;;;;;1.98;0.85;;;11.40;99.90;;;;;;4889580;29;20052;-68
2022/06/19 02:21:07;;;;;;;1.33;0.75;;;11.40;99.90;;;;;;4891076;29;20204;-68
2022/06/19 02:23:37;;;;;;;2.75;1.15;;;11.50;99.90;;;;;;4874510;29;20153;-68
2022/06/19 02:26:06;;;;;;;3.45;1.73;;;11.40;99.90;;;;;;4860638;29;20052;-68
2022/06/19 02:28:36;;;;;;;3.50;1.08;;;11.30;99.90;;;;;;4891204;29;20100;-69
2022/06/19 02:31:06;;;;;;;2.13;1.00;;;11.30;99.90;;;;;;4890911;29;20055;-68
2022/06/19 02:33:36;;;;;;;3.03;1.30;;;11.30;99.90;;;;;;4873131;29;20052;-68
2022/06/19 02:36:48;;;;;;;2.40;0.82;;;11.40;99.90;;;;;;4875999;29;20583;-68
2022/06/19 02:39:21;;;;;;;3.35;0.98;;;11.30;99.90;;;;;;4886570;29;20096;-68
2022/06/19 02:42:02;;;;;;;2.97;1.20;;;11.30;99.90;;;;;;4878843;29;20123;-68
2022/06/19 02:44:39;;;;;;;2.42;1.40;;;11.20;99.90;;;;;;4888922;29;20127;-68
2022/06/19 02:47:06;;;;;;;3.90;1.55;;;11.20;99.90;;;;;;4890265;29;20056;-68
2022/06/19 02:49:33;;;;;;;2.28;1.20;;;11.20;99.90;;;;;;4906376;29;20088;-68
2022/06/19 02:52:01;;;;;;;2.30;1.38;;;11.20;99.90;;;;;;4891025;29;20127;-69
2022/06/19 02:54:29;;;;;;;2.53;1.27;;;11.20;99.90;;;;;;4875045;29;20150;-68
2022/06/19 02:56:56;;;;;;;2.15;1.10;;;11.20;99.90;;;;;;4907669;29;20131;-68
2022/06/19 02:59:22;;;;;;;2.05;1.17;;;11.30;99.90;;;;;;4889801;29;20512;-68
2022/06/19 03:01:49;;;;;;;2.08;1.25;;;11.30;99.90;;;;;;4889729;29;20102;-68
2022/06/19 03:04:27;;;;;;;4.50;1.58;;;11.30;99.90;;;;;;4905433;29;20062;-68
2022/06/19 03:06:54;;;;;;;2.78;1.27;;;11.30;99.90;;;;;;4890754;29;20131;-68
2022/06/19 03:09:21;;;;;;;2.28;1.20;;;11.40;99.90;;;;;;4875176;29;20648;-68
2022/06/19 03:11:48;;;;;;;2.42;1.30;;;11.40;99.90;;;;;;4907999;29;20087;-68
2022/06/19 03:14:15;;;;;;;3.58;1.15;;;11.40;99.90;;;;;;4906318;29;20052;-68
2022/06/19 03:16:42;;;;;;;4.70;1.40;;;11.50;99.90;;;;;;4906616;29;20077;-68
2022/06/19 03:19:09;;;;;;;2.80;1.30;;;11.50;99.90;;;;;;4905568;29;20131;-68
2022/06/19 03:21:36;;;;;;;3.25;1.10;;;11.50;99.90;;;;;;4891160;29;20048;-68
2022/06/19 03:24:02;;;;;;;2.92;1.38;;;11.50;99.90;;;;;;4889536;29;20337;-68
2022/06/19 03:26:30;;;;;;;3.22;1.63;;;11.50;99.90;;;;;;4890169;29;20654;-68
2022/06/19 03:28:57;;;;;;;1.83;0.93;;;11.50;99.90;;;;;;4907166;29;20060;-68
2022/06/19 03:31:25;;;;;;;3.85;1.58;;;11.50;99.90;;;;;;4889862;29;20156;-68
2022/06/19 03:33:52;;;;;;;2.38;1.30;;;11.50;99.90;;;;;;4888388;29;20099;-68
2022/06/19 03:36:19;;;;;;;3.63;1.00;;;11.50;99.90;;;;;;4871796;29;20076;-68
2022/06/19 03:38:46;;;;;;;4.75;1.58;;;11.60;99.90;;;;;;4871688;29;20143;-68
2022/06/19 03:41:13;;;;;;;2.17;1.13;;;11.60;99.90;;;;;;4873213;29;20049;-68
2022/06/19 03:43:40;;;;;;;2.55;1.00;;;11.70;99.90;;;;;;4874304;29;20641;-68
2022/06/19 03:46:14;;;;;;;2.08;1.02;;;11.70;99.90;;;;;;4889474;29;20547;-68
2022/06/19 03:48:42;;;;;;;2.22;1.08;;;11.70;99.90;;;;;;4905163;29;20073;-68
2022/06/19 03:51:09;;;;;;;1.33;1.00;;;11.80;99.90;;;;;;4910403;29;20084;-68
2022/06/19 03:53:36;;;;;;;2.13;0.88;;;11.80;99.90;;;;;;4909823;29;20135;-68
2022/06/19 03:56:03;;;;;;;2.28;0.90;;;11.90;99.90;;;;;;4910856;29;20135;-68
2022/06/19 03:58:48;;;;;;;1.83;1.00;;;11.90;99.90;;;;;;4893822;29;20105;-68
2022/06/19 04:01:14;;;;;;;2.63;1.00;;;11.90;99.90;;;;;;4894954;29;20138;-68
2022/06/19 04:03:41;;;;;;;1.58;0.80;;;11.80;99.90;;;;;;4908931;29;20168;-68
2022/06/19 04:06:10;;;;;;;2.70;1.10;;;11.90;99.90;;;;;;4910475;29;20048;-68
2022/06/19 04:08:37;;;;;;;3.28;1.25;;;11.90;99.90;;;;;;4878098;29;20146;-68
2022/06/19 04:11:07;;;;;;;2.00;0.90;;;11.90;99.90;;;;;;4878019;29;20106;-68
2022/06/19 04:13:34;;;;;;;3.45;1.35;;;12.00;99.90;;;;;;4876818;29;20048;-68
2022/06/19 04:16:02;;;;;;;1.98;0.95;;;11.90;99.90;;;;;;4892638;29;20111;-68
2022/06/19 04:18:29;;;;;;;1.77;0.85;;;11.90;99.90;;;;;;4891875;29;20051;-68
2022/06/19 04:20:57;;;;;;;2.63;1.00;;;11.90;99.90;;;;;;4893291;29;20139;-69
2022/06/19 04:23:24;;;;;;;2.17;1.30;;;11.90;99.90;;;;;;4905185;29;20084;-68
2022/06/19 04:25:52;;;;;;;1.42;0.82;;;11.90;99.90;;;;;;4891329;29;20052;-68
2022/06/19 04:28:22;;;;;;;2.80;1.13;;;11.90;99.90;;;;;;4886414;29;20140;-68
2022/06/19 04:30:52;;;;;;;3.80;1.20;;;12.00;99.90;;;;;;4875192;29;20417;-68
2022/06/19 04:33:20;;;;;;;4.25;1.40;;;12.00;99.90;;;;;;4889131;29;20086;-68
2022/06/19 04:35:47;;;;;;;3.58;1.13;;;11.90;99.90;;;;;;4894023;29;20135;-69
2022/06/19 04:38:14;;;;;;;3.92;1.25;;;11.90;99.90;;;;;;4893586;29;20052;-68
2022/06/19 04:40:44;;;;;;;3.63;1.75;;;11.90;99.90;;;;;;4893164;29;20052;-68
2022/06/19 04:43:11;;;;;;;3.00;0.98;;;11.80;99.90;;;;;;4892777;29;20139;-68
2022/06/19 04:45:38;;;;;;;2.80;1.27;;;11.90;99.90;;;;;;4909578;29;20051;-68
2022/06/19 04:48:06;;;;;;;2.13;1.15;;;12.00;99.90;;;;;;4908140;29;20048;-69
2022/06/19 04:50:32;;;;;;;4.05;1.20;;;12.00;99.90;;;;;;4893188;29;20135;-68
2022/06/19 04:52:59;;;;;;;3.88;1.48;;;11.90;99.90;;;;;;4891614;29;20147;-68
2022/06/19 04:55:26;;;;;;;3.92;1.88;;;11.90;99.90;;;;;;4910099;29;20108;-69
2022/06/19 04:57:52;;;;;;;5.93;2.03;;;11.90;99.90;;;;;;4909952;29;20135;-68
2022/06/19 05:00:20;;;;;;;2.78;1.30;;;11.90;99.90;;;;;;4909637;29;20052;-68
2022/06/19 05:02:50;;;;;;;6.50;1.58;;;11.90;99.90;;;;;;4890407;29;20083;-67
2022/06/19 05:05:18;;;;;;;6.63;1.40;;;11.90;99.90;;;;;;4887976;29;20048;-68
2022/06/19 05:07:45;;;;;;;2.78;1.30;;;12.00;99.90;;;;;;4875358;29;20139;-68
2022/06/19 05:10:11;;;;;;;4.50;1.67;;;12.00;99.90;;;;;;4875727;29;20147;-68
2022/06/19 05:12:38;;;;;;;2.72;1.55;;;12.00;99.90;;;;;;4906239;29;20688;-68
2022/06/19 05:15:06;;;;;;;2.72;1.05;;;11.90;99.90;;;;;;4907659;29;20084;-69
2022/06/19 05:17:33;;;;;;;3.55;1.40;;;12.10;99.90;;;;;;4889250;29;20085;-68
2022/06/19 05:20:00;;;;;;;2.63;1.20;;;12.10;99.90;;;;;;4890613;29;20102;-68
2022/06/19 05:22:26;;;;;;;2.72;1.20;;;12.10;99.90;;;;;;4889108;29;20131;-68
2022/06/19 05:24:53;;;;;;;2.83;0.95;;;12.10;99.90;;;;;;4890578;29;20155;-68
2022/06/19 05:27:20;;;;;;;2.85;1.05;;;12.10;99.90;;;;;;4889794;29;20449;-68
2022/06/19 05:29:47;;;;;;;2.00;1.33;;;12.10;99.90;;;;;;4907357;29;20052;-68
2022/06/19 05:32:14;;;;;;;2.05;1.13;;;12.10;99.90;;;;;;4906338;29;20142;-68
2022/06/19 05:34:42;;;;;;;2.58;1.10;;;12.20;99.90;;;;;;4905111;29;20429;-68
2022/06/19 05:37:13;;;;;;;3.10;1.73;;;12.30;99.90;;;;;;4891331;29;20044;-68
2022/06/19 05:39:40;;;;;;;2.15;1.05;;;12.20;99.90;;;;;;4890487;29;20059;-68
2022/06/19 05:42:07;;;;;;;1.38;0.80;;;12.30;99.90;;;;;;4905277;29;20175;-68
2022/06/19 05:44:35;;;;;;;1.42;0.90;;;12.40;99.90;;;;;;4903792;29;20052;-69
2022/06/19 05:47:02;;;;;;;1.65;0.73;;;12.60;99.90;;;;;;4890177;29;20056;-69
2022/06/19 05:49:31;;;;;;;0.75;0.60;;;12.70;99.90;;;;;;4872690;29;20146;-69
2022/06/19 05:51:59;;;;;;;1.95;0.93;;;12.80;99.90;;;;;;4888988;29;20549;-69
2022/06/19 05:54:28;;;;;;;2.33;0.90;;;12.90;99.90;;;;;;4905612;29;20055;-68
2022/06/19 05:56:55;;;;;;;3.75;1.02;;;13.00;99.90;;;;;;4869088;29;20072;-69
2022/06/19 05:59:21;;;;;;;2.25;1.10;;;13.00;99.90;;;;;;4879789;29;20147;-75
2022/06/19 06:01:48;;;;;;;2.13;1.00;;;13.10;99.90;;;;;;4866247;29;20140;-69
2022/06/19 06:04:15;;;;;;;2.80;1.10;;;13.10;99.90;;;;;;4865237;29;20080;-69
2022/06/19 06:06:42;;;;;;;3.10;1.15;;;13.20;99.90;;;;;;4896118;29;20044;-69
2022/06/19 06:09:10;;;;;;;3.08;0.90;;;13.20;99.90;;;;;;4895679;29;20064;-68
2022/06/19 06:11:36;;;;;;;7.07;1.95;;;13.30;99.90;;;;;;4887733;29;20079;-69
2022/06/19 06:14:03;;;;;;;2.35;1.08;;;13.30;99.90;;;;;;4878411;29;20519;-69
2022/06/19 06:16:30;;;;;;;2.50;1.30;;;13.40;99.90;;;;;;4898545;29;20088;-69
2022/06/19 06:18:56;;;;;;;5.43;1.40;;;13.40;99.90;;;;;;4895033;29;20080;-69
2022/06/19 06:21:24;;;;;;;2.15;1.10;;;13.50;99.90;;;;;;4878500;29;20060;-69
2022/06/19 06:23:52;;;;;;;3.65;1.23;;;13.60;99.90;;;;;;4894511;29;20444;-68
2022/06/19 06:26:20;;;;;;;2.35;1.00;;;13.60;99.90;;;;;;4877537;29;20155;-69
2022/06/19 06:28:48;;;;;;;1.90;1.15;;;13.70;99.90;;;;;;4878618;29;20136;-69
2022/06/19 06:31:16;;;;;;;3.65;1.35;;;13.70;99.90;;;;;;4896675;29;20442;-69
2022/06/19 06:33:43;;;;;;;2.85;1.25;;;13.60;99.90;;;;;;4877884;29;20052;-69
2022/06/19 06:36:10;;;;;;;2.65;1.30;;;13.60;99.90;;;;;;4884728;29;20192;-69
2022/06/19 06:38:37;;;;;;;2.90;1.30;;;13.60;99.90;;;;;;4874104;29;20087;-69
2022/06/19 06:41:05;;;;;;;3.80;1.10;;;13.60;99.90;;;;;;4888523;29;20162;-69
2022/06/19 06:43:31;;;;;;;1.58;0.80;;;13.70;99.90;;;;;;4873494;29;20667;-68
2022/06/19 06:46:05;;;;;;;1.98;1.08;;;13.80;99.90;;;;;;4888336;29;20083;-69
2022/06/19 06:48:32;;;;;;;2.70;1.10;;;13.90;99.90;;;;;;4872967;29;20059;-68
2022/06/19 06:50:59;;;;;;;3.60;1.17;;;14.10;99.90;;;;;;4890007;29;20045;-67
2022/06/19 06:53:26;;;;;;;2.30;1.10;;;14.10;99.90;;;;;;4869438;29;20150;-67
2022/06/19 06:55:55;;;;;;;1.92;1.00;;;14.20;99.90;;;;;;4889648;29;20413;-67
2022/06/19 06:58:21;;;;;;;2.70;1.10;;;14.30;99.90;;;;;;4871866;29;20167;-68
2022/06/19 07:00:48;;;;;;;2.53;1.20;;;14.20;99.90;;;;;;4886005;29;20175;-67
2022/06/19 07:03:15;;;;;;;3.47;1.38;;;14.20;99.90;;;;;;4895733;29;20135;-67
2022/06/19 07:05:42;;;;;;;2.20;0.95;;;14.20;99.90;;;;;;4888308;29;20075;-67
2022/06/19 07:08:08;;;;;;;2.75;1.42;;;14.30;99.90;;;;;;4904168;29;20132;-68
2022/06/19 07:10:35;;;;;;;3.10;1.05;;;14.30;99.90;;;;;;4903787;29;20576;-67
2022/06/19 07:13:02;;;;;;;2.10;1.17;;;14.30;99.90;;;;;;4884986;29;20513;-67
2022/06/19 07:15:29;;;;;;;2.28;0.95;;;14.30;99.90;;;;;;4901904;29;20633;-67
2022/06/19 07:17:55;;;;;;;2.08;1.10;;;14.40;99.90;;;;;;4902737;29;20058;-67
2022/06/19 07:20:22;;;;;;;3.03;1.30;;;14.50;99.90;;;;;;4890717;29;20142;-67
2022/06/19 07:22:49;;;;;;;3.95;1.42;;;14.60;99.90;;;;;;4889623;29;20396;-67
2022/06/19 07:25:17;;;;;;;3.70;1.40;;;14.40;99.90;;;;;;4892482;29;20131;-67
2022/06/19 07:27:44;;;;;;;5.40;1.70;;;14.40;99.90;;;;;;4908800;29;20155;-67
2022/06/19 07:30:18;;;;;;;4.97;1.98;;;14.40;99.90;;;;;;4893782;29;20131;-68
2022/06/19 07:32:45;;;;;;;4.40;1.52;;;14.30;99.90;;;;;;4889450;29;20183;-67
2022/06/19 07:35:12;;;;;;;4.78;1.48;;;14.40;99.90;;;;;;4907494;29;20612;-67
2022/06/19 07:37:39;;;;;;;2.88;1.13;;;14.40;99.90;;;;;;4888776;29;20254;-67
2022/06/19 07:40:06;;;;;;;2.42;1.05;;;14.50;99.90;;;;;;4886349;29;20083;-68
2022/06/19 07:42:33;;;;;;;2.63;1.25;;;14.50;99.90;;;;;;4886918;29;20588;-68
2022/06/19 07:45:00;;;;;;;3.53;1.55;;;14.60;99.90;;;;;;4886435;29;20128;-68
2022/06/19 07:50:15;;;;;;;3.35;1.20;;;14.50;99.90;;;;;;4914599;29;20088;-68
2022/06/19 07:52:43;;;;;;;3.28;1.55;;;14.60;99.90;;;;;;4911097;29;20052;-68
2022/06/19 07:55:11;;;;;;;3.13;0.90;;;14.70;99.90;;;;;;4910138;29;20516;-68
2022/06/19 07:57:38;;;;;;;3.15;1.40;;;14.80;99.90;;;;;;4892358;29;20099;-79
2022/06/19 08:00:16;;;;;;;2.50;1.27;;;15.00;99.90;;;;;;4890987;29;20044;-69
2022/06/19 08:02:46;;;;;;;3.00;1.10;;;15.10;99.90;;;;;;4909435;29;20171;-69
2022/06/19 08:05:13;;;;;;;3.83;1.50;;;15.30;99.90;;;;;;4905420;29;20052;-70
2022/06/19 08:07:40;;;;;;;2.20;1.15;;;15.30;99.90;;;;;;4861655;29;20420;-68
2022/06/19 08:10:08;;;;;;;3.10;1.15;;;15.40;99.90;;;;;;4890870;29;20088;-68
2022/06/19 08:12:34;;;;;;;2.15;0.70;;;15.50;99.90;;;;;;4874798;29;20148;-68
2022/06/19 08:15:01;;;;;;;2.10;1.00;;;15.60;99.90;;;;;;4894035;29;20076;-68
2022/06/19 08:17:28;;;;;;;2.50;0.98;;;15.80;99.90;;;;;;4907386;29;20059;-68
2022/06/19 08:19:55;;;;;;;2.38;1.45;;;15.90;99.90;;;;;;4893371;29;20062;-68
2022/06/19 08:22:21;;;;;;;2.08;0.75;;;16.10;99.90;;;;;;4907744;29;20615;-68
2022/06/19 08:24:53;;;;;;;2.28;1.23;;;16.20;99.90;;;;;;4905385;29;20052;-68
2022/06/19 08:27:20;;;;;;;4.00;2.15;;;16.10;99.90;;;;;;4888694;29;20131;-67
2022/06/19 08:29:47;;;;;;;5.13;2.42;;;16.00;99.90;;;;;;4867917;29;20550;-68
2022/06/19 08:32:14;;;;;;;4.65;2.20;;;15.90;99.90;;;;;;4904161;29;20079;-67
2022/06/19 08:34:40;;;;;;;2.00;1.17;;;15.90;99.90;;;;;;4890947;29;20051;-68
2022/06/19 08:37:08;;;;;;;1.75;0.90;;;15.90;99.90;;;;;;4892475;29;20087;-70
2022/06/19 08:39:35;;;;;;;2.67;1.52;;;16.00;99.90;;;;;;4878651;29;20116;-68
2022/06/19 08:42:22;;;;;;;2.55;1.10;;;16.00;99.90;;;;;;4875072;29;20143;-68
2022/06/19 08:45:14;;;;;;;4.18;1.60;;;15.90;99.90;;;;;;4910372;29;20052;-68
2022/06/19 08:47:51;;;;;;;2.22;1.00;;;15.80;99.90;;;;;;4894509;29;20056;-68
2022/06/19 08:50:21;;;;;;;2.15;1.02;;;15.70;99.90;;;;;;4891908;29;20139;-68
2022/06/19 08:52:51;;;;;;;2.20;0.80;;;15.80;99.90;;;;;;4892171;29;20090;-68
2022/06/19 08:55:23;;;;;;;2.33;0.90;;;15.80;99.90;;;;;;4908917;29;20147;-68
2022/06/19 08:58:17;;;;;;;2.60;1.00;;;15.90;99.90;;;;;;4909753;29;20143;-82
2022/06/19 09:00:59;;;;;;;1.67;0.95;;;16.00;99.90;;;;;;4884742;29;20083;-68
2022/06/19 09:05:36;;;;;;;2.25;1.13;;;16.20;99.90;;;;;;4886770;29;20048;-68
2022/06/19 09:06:39;;;;;;;1.95;0.90;;;16.60;99.90;;;;;;4894959;29;20059;-68
2022/06/19 09:09:35;;;;;;;2.08;0.90;;;17.20;99.90;;;;;;4880960;29;20085;-68
2022/06/19 09:12:14;;;;;;;1.23;0.47;;;17.50;99.90;;;;;;4915515;29;20087;-68
2022/06/19 09:14:49;;;;;;;1.98;0.98;;;17.80;99.90;;;;;;4880777;29;20131;-68
2022/06/19 09:17:25;;;;;;;2.08;1.10;;;17.90;99.90;;;;;;4907970;29;20146;-68
2022/06/19 09:20:07;;;;;;;1.80;1.00;;;17.70;99.90;;;;;;4883641;29;20051;-68
2022/06/19 09:23:03;;;;;;;2.67;1.27;;;17.70;99.90;;;;;;4892452;29;20048;-69
2022/06/19 09:25:49;;;;;;;2.20;1.00;;;17.80;99.90;;;;;;4893368;29;20134;-69
2022/06/19 09:28:22;;;;;;;1.50;0.68;;;17.90;98.80;;;;;;4909335;29;20135;-68
2022/06/19 09:31:13;;;;;;;2.08;0.60;;;18.00;99.90;;;;;;4886153;29;20080;-68
2022/06/19 09:33:45;;;;;;;1.48;0.60;;;18.10;97.80;;;;;;4884323;29;20465;-68
2022/06/19 09:36:20;;;;;;;1.73;0.82;;;18.00;98.20;;;;;;4904119;29;20127;-73
2022/06/19 09:39:21;;;;;;;1.90;0.75;;;18.10;98.50;;;;;;4869102;29;20066;-73
2022/06/19 09:41:53;;;;;;;0.98;0.60;;;18.10;98.30;;;;;;4877363;29;20056;-68
2022/06/19 09:44:44;;;;;;;1.48;0.88;;;18.30;98.20;;;;;;4900428;29;20048;-67
2022/06/19 09:47:22;;;;;;;1.63;0.63;;;18.60;96.60;;;;;;4900939;29;20322;-67
2022/06/19 09:50:20;;;;;;;1.52;0.50;;;18.90;96.80;;;;;;4881553;29;20048;-67
2022/06/19 09:53:10;;;;;;;0.80;0.50;;;19.10;96.40;;;;;;4853681;29;20555;-68
2022/06/19 09:55:40;;;;;;;1.10;0.50;;;19.40;97.00;;;;;;4872153;29;20166;-67
2022/06/19 09:58:12;;;;;;;1.65;0.73;;;19.60;95.80;;;;;;4879038;29;20127;-68
2022/06/19 10:00:40;;;;;;;0.88;0.55;;;19.80;93.90;;;;;;4877458;29;20138;-68
2022/06/19 10:03:37;;;;;;;1.75;0.50;;;19.90;94.40;;;;;;4879888;29;20381;-68
2022/06/19 10:06:13;;;;;;;0.80;0.50;;;20.10;92.10;;;;;;4892396;29;20544;-68
2022/06/19 10:08:59;;;;;;;1.17;0.60;;;20.30;94.10;;;;;;4886671;29;20083;-68
2022/06/19 10:11:30;;;;;;;1.30;0.50;;;20.10;92.20;;;;;;4887853;29;20047;-68
2022/06/19 10:13:59;;;;;;;0.77;0.50;;;19.70;92.10;;;;;;4888581;29;20151;-77
2022/06/19 10:16:46;;;;;;;1.05;0.60;;;19.50;92.80;;;;;;4884253;29;20111;-67
2022/06/19 10:19:22;;;;;;;2.60;1.10;;;19.40;92.40;;;;;;4862117;29;20049;-68
2022/06/19 10:22:25;;;;;;;0.93;0.60;;;19.10;92.90;;;;;;4882362;29;20301;-68
2022/06/19 10:25:01;;;;;;;;;;;19.10;93.20;;;;;;4887317;29;20056;-68
2022/06/19 10:27:47;;;;;;;1.00;0.50;;;19.30;93.50;;;;;;4900806;29;20347;-68
2022/06/19 10:30:40;;;;;;;1.17;0.60;;;19.60;93.00;;;;;;4897882;29;20056;-68
2022/06/19 10:33:33;;;;;;;0.82;0.45;;;19.60;92.90;;;;;;4876918;29;20225;-67
2022/06/19 10:36:20;;;;;;;1.33;0.65;;;19.80;92.90;;;;;;4904299;29;20138;-68
2022/06/19 10:39:15;;;;;;;1.30;0.40;;;19.80;92.40;;;;;;4887389;29;20128;-68
2022/06/19 10:42:00;;;;;;;1.02;0.50;;;19.90;93.10;;;;;;4873539;29;20182;-67
2022/06/19 10:45:05;;;;;;;1.30;0.68;;;20.00;92.50;;;;;;4869477;29;20155;-68
2022/06/19 10:48:04;;;;;;;1.13;0.60;;;19.90;93.20;;;;;;4881992;29;20151;-67
2022/06/19 10:50:54;;;;;;;1.45;0.40;;;19.80;92.50;;;;;;4875575;29;20063;-68
2022/06/19 10:53:36;;;;;;;0.63;0.38;;;19.90;92.90;;;;;;4883586;29;20075;-68
2022/06/19 10:56:16;;;;;;;2.42;0.70;;;20.10;92.70;;;;;;4901215;29;20543;-68
2022/06/19 10:58:45;;;;;;;1.73;0.85;;;20.30;93.70;;;;;;4880331;29;20131;-68
2022/06/19 11:04:06;;;;;;;1.50;0.70;;;20.10;90.80;;;;;;4863372;29;20064;-68
2022/06/19 11:04:11;;;;;;;0.70;0.52;;;20.00;91.90;;;;;;4893893;29;20056;-76
2022/06/19 11:06:51;;;;;;;1.15;0.57;;;20.30;91.00;;;;;;4886629;29;20055;-67
2022/06/19 11:09:21;;;;;;;2.25;1.10;;;20.40;90.50;;;;;;4900403;29;20146;-68
2022/06/19 11:11:48;;;;;;;2.67;1.25;;;20.10;90.30;;;;;;4882200;29;20452;-68
2022/06/19 11:14:33;;;;;;;1.38;0.77;;;19.90;90.90;;;;;;4867840;29;20106;-68
2022/06/19 11:17:05;;;;;;;1.30;0.70;;;20.00;91.30;;;;;;4883419;29;20131;-68
2022/06/19 11:19:37;;;;;;;0.88;0.52;;;20.30;91.70;;;;;;4897456;29;20108;-68
2022/06/19 11:22:40;;;;;;;1.60;0.60;;;20.50;90.40;;;;;;4902920;29;20059;-69
2022/06/19 11:25:19;;;;;;;1.58;0.70;;;20.70;90.90;;;;;;4883946;29;20202;-68
2022/06/19 11:28:19;;;;;;;0.85;0.65;;;20.80;87.10;;;;;;4906415;29;20048;-68
2022/06/19 11:30:51;;;;;;;0.90;0.45;;;20.70;90.40;;;;;;4902900;29;20112;-67
2022/06/19 11:33:20;;;;;;;1.00;0.40;;;20.70;88.70;;;;;;4867475;29;20128;-68
2022/06/19 11:35:55;;;;;;;0.65;0.40;;;20.40;90.20;;;;;;4869690;29;20057;-68
2022/06/19 11:38:42;;;;;;;0.65;0.40;;;20.30;90.20;;;;;;4869794;29;20077;-68
2022/06/19 11:41:32;;;;;;;0.95;0.50;;;20.30;90.90;;;;;;4870680;29;20512;-68
2022/06/19 11:44:14;;;;;;;1.20;0.57;;;20.10;91.00;;;;;;4870027;29;20160;-68
2022/06/19 11:46:54;;;;;;;2.40;0.60;;;20.00;90.30;;;;;;4869843;29;20068;-68
2022/06/19 11:49:31;;;;;;;2.78;0.55;;;19.90;90.70;;;;;;4868228;29;20053;-67
2022/06/19 11:52:04;;;;;;;1.10;0.60;;;19.80;90.50;;;;;;4871524;29;20095;-67
2022/06/19 11:54:35;;;;;;;1.33;0.60;;;19.80;90.20;;;;;;4868995;29;20081;-68
2022/06/19 11:57:02;;;;;;;1.17;0.55;;;19.60;89.50;;;;;;4870133;29;20223;-68
2022/06/19 11:59:44;;;;;;;0.60;0.40;;;19.70;89.40;;;;;;4868717;29;20368;-67
2022/06/19 12:02:40;;;;;;;1.30;0.60;;;19.90;90.20;;;;;;4869384;29;20056;-67
2022/06/19 12:05:28;;;;;;;0.38;0.30;;;20.00;90.10;;;;;;4845231;29;20149;-67
2022/06/19 12:07:56;;;;;;;0.80;0.40;;;20.00;90.20;;;;;;4868792;29;20601;-68
2022/06/19 12:10:27;;;;;;;2.00;0.60;;;20.10;90.00;;;;;;4869615;29;20151;-67
2022/06/19 12:12:58;;;;;;;1.98;0.80;;;20.10;90.00;;;;;;4871200;29;20144;-68
2022/06/19 12:15:30;;;;;;;1.15;0.50;;;20.10;89.50;;;;;;4872393;29;20081;-68
2022/06/19 12:17:59;;;;;;;1.40;0.65;;;20.20;90.90;;;;;;4867671;29;20058;-68
2022/06/19 12:20:33;;;;;;;0.90;0.60;;;20.30;90.30;;;;;;4869735;29;20357;-68
2022/06/19 12:23:10;;;;;;;1.15;0.60;;;20.50;90.60;;;;;;4871381;29;20137;-68
2022/06/19 12:26:05;;;;;;;1.20;0.52;;;20.60;90.40;;;;;;4872711;29;20077;-68
2022/06/19 12:28:53;;;;;;;1.45;0.65;;;20.90;88.10;;;;;;4870970;29;20057;-68
2022/06/19 12:31:22;;;;;;;2.13;0.88;;;20.70;90.40;;;;;;4875481;29;20065;-68
2022/06/19 12:33:51;;;;;;;1.33;0.50;;;20.80;88.70;;;;;;4889364;29;20140;-68
2022/06/19 12:36:30;;;;;;;0.60;0.30;;;21.20;89.70;;;;;;4891151;29;20088;-68
2022/06/19 12:38:56;;;;;;;1.02;0.43;;;21.60;87.60;;;;;;4890796;29;20140;-68
2022/06/19 12:41:51;;;;;;;0.63;0.47;;;21.80;88.10;;;;;;4891068;29;20446;-69
2022/06/19 12:44:24;;;;;;;1.70;0.60;;;21.90;86.40;;;;;;4891815;29;20060;-68
2022/06/19 12:46:57;;;;;;;0.50;0.40;;;21.90;86.30;;;;;;4892592;29;20048;-69
2022/06/19 12:49:35;;;;;;;1.17;0.57;;;21.50;86.40;;;;;;4889109;29;20106;-68
2022/06/19 12:52:11;;;;;;;0.77;0.40;;;21.40;86.40;;;;;;4892683;29;20095;-69
2022/06/19 12:54:59;;;;;;;1.15;0.40;;;21.30;86.60;;;;;;4891964;29;20452;-68
2022/06/19 12:57:40;;;;;;;0.95;0.40;;;21.20;86.70;;;;;;4891073;29;20795;-68
2022/06/19 13:00:11;;;;;;;1.50;0.38;;;21.30;87.50;;;;;;4888481;29;20167;-68
2022/06/19 13:03:26;;;;;;;0.85;0.60;;;21.20;86.20;;;;;;4885676;29;20656;-69
2022/06/19 13:06:05;;;;;;;0.63;0.40;;;21.20;89.60;;;;;;4870257;29;20501;-68
2022/06/19 13:08:46;;;;;;;0.50;0.38;;;21.30;89.30;;;;;;4868846;29;20092;-68
2022/06/19 13:11:20;;;;;;;0.95;0.50;;;21.50;88.00;;;;;;4869833;29;20136;-68
2022/06/19 13:14:12;;;;;;;1.20;0.50;;;21.50;88.60;;;;;;4874875;29;20508;-68
2022/06/19 13:17:03;;;;;;;0.43;0.40;;;21.90;87.50;;;;;;4887128;29;20151;-69
2022/06/19 13:19:32;;;;;;;1.92;0.80;;;22.70;86.50;;;;;;4870547;29;20140;-68
2022/06/19 13:22:22;;;;;;;2.65;1.00;;;23.40;83.50;;;;;;4888210;29;20056;-68